sensor_id;sensor_type;location;lat;lon;timestamp;pressure;altitude;pressure_sealevel;temperature;humidity
71791;BME280;59638;52.126;5.434;2022-10-16T00:01:27;101110.41;;;11.68;94.92
71791;BME280;59638;52.126;5.434;2022-10-16T00:03:54;101107.38;;;11.73;94.82
71791;BME280;59638;52.126;5.434;2022-10-16T00:06:21;101105.97;;;11.79;94.21
71791;BME280;59638;52.126;5.434;2022-10-16T00:08:49;101104.56;;;11.75;94.16
71791;BME280;59638;52.126;5.434;2022-10-16T00:11:27;101104.88;;;11.71;94.50
71791;BME280;59638;52.126;5.434;2022-10-16T00:13:57;101105.84;;;11.70;94.76
71791;BME280;59638;52.126;5.434;2022-10-16T00:16:25;101115.69;;;11.68;94.78
71791;BME280;59638;52.126;5.434;2022-10-16T00:18:52;101121.28;;;11.65;94.91
71791;BME280;59638;52.126;5.434;2022-10-16T00:21:21;101114.31;;;11.64;94.54
71791;BME280;59638;52.126;5.434;2022-10-16T00:23:53;101109.28;;;11.61;95.02
71791;BME280;59638;52.126;5.434;2022-10-16T00:26:20;101117.22;;;11.61;95.34
71791;BME280;59638;52.126;5.434;2022-10-16T00:28:48;101114.59;;;11.61;95.14
71791;BME280;59638;52.126;5.434;2022-10-16T00:31:16;101115.69;;;11.68;95.05
71791;BME280;59638;52.126;5.434;2022-10-16T00:33:44;101115.88;;;11.86;94.73
71791;BME280;59638;52.126;5.434;2022-10-16T00:36:14;101117.69;;;11.86;94.97
71791;BME280;59638;52.126;5.434;2022-10-16T00:38:40;101112.41;;;11.86;95.22
71791;BME280;59638;52.126;5.434;2022-10-16T00:41:09;101108.78;;;11.87;94.71
71791;BME280;59638;52.126;5.434;2022-10-16T00:46:13;101112.16;;;11.89;94.78
71791;BME280;59638;52.126;5.434;2022-10-16T00:48:45;101107.53;;;11.91;94.60
71791;BME280;59638;52.126;5.434;2022-10-16T00:51:11;101112.69;;;11.92;94.66
71791;BME280;59638;52.126;5.434;2022-10-16T00:53:38;101112.97;;;11.99;95.02
71791;BME280;59638;52.126;5.434;2022-10-16T00:56:04;101111.72;;;12.03;94.72
71791;BME280;59638;52.126;5.434;2022-10-16T00:58:31;101105.44;;;12.04;94.62
71791;BME280;59638;52.126;5.434;2022-10-16T01:00:58;101116.31;;;12.11;94.25
71791;BME280;59638;52.126;5.434;2022-10-16T01:06:23;101116.97;;;12.32;94.27
71791;BME280;59638;52.126;5.434;2022-10-16T01:09:31;101120.44;;;12.33;94.01
71791;BME280;59638;52.126;5.434;2022-10-16T01:12:23;101125.47;;;12.36;94.34
71791;BME280;59638;52.126;5.434;2022-10-16T01:14:59;101127.97;;;12.37;94.70
71791;BME280;59638;52.126;5.434;2022-10-16T01:20:04;101122.25;;;12.42;94.42
71791;BME280;59638;52.126;5.434;2022-10-16T01:28:51;101105.06;;;12.56;94.63
71791;BME280;59638;52.126;5.434;2022-10-16T01:31:22;101120.13;;;12.55;94.33
71791;BME280;59638;52.126;5.434;2022-10-16T01:34:02;101123.72;;;12.54;94.22
71791;BME280;59638;52.126;5.434;2022-10-16T01:36:37;101123.03;;;12.52;94.54
71791;BME280;59638;52.126;5.434;2022-10-16T01:39:08;101116.91;;;12.51;94.57
71791;BME280;59638;52.126;5.434;2022-10-16T01:41:43;101114.28;;;12.51;94.72
71791;BME280;59638;52.126;5.434;2022-10-16T01:44:20;101118.44;;;12.54;94.57
71791;BME280;59638;52.126;5.434;2022-10-16T01:46:50;101113.13;;;12.54;94.78
71791;BME280;59638;52.126;5.434;2022-10-16T01:49:18;101123.72;;;12.54;94.84
71791;BME280;59638;52.126;5.434;2022-10-16T01:51:50;101116.50;;;12.56;95.04
71791;BME280;59638;52.126;5.434;2022-10-16T01:54:20;101109.09;;;12.60;95.26
71791;BME280;59638;52.126;5.434;2022-10-16T01:56:50;101109.91;;;12.60;94.88
71791;BME280;59638;52.126;5.434;2022-10-16T01:59:19;101116.19;;;12.59;94.75
71791;BME280;59638;52.126;5.434;2022-10-16T02:01:50;101107.56;;;12.57;94.50
71791;BME280;59638;52.126;5.434;2022-10-16T02:04:28;101107.28;;;12.60;94.38
71791;BME280;59638;52.126;5.434;2022-10-16T02:06:55;101105.03;;;12.65;94.08
71791;BME280;59638;52.126;5.434;2022-10-16T02:09:22;101103.06;;;12.67;93.81
71791;BME280;59638;52.126;5.434;2022-10-16T02:11:50;101105.03;;;12.65;94.04
71791;BME280;59638;52.126;5.434;2022-10-16T02:14:17;101115.63;;;12.65;94.07
71791;BME280;59638;52.126;5.434;2022-10-16T02:16:46;101110.47;;;12.64;94.23
71791;BME280;59638;52.126;5.434;2022-10-16T02:19:14;101111.72;;;12.69;94.39
71791;BME280;59638;52.126;5.434;2022-10-16T02:21:46;101110.06;;;12.68;94.15
71791;BME280;59638;52.126;5.434;2022-10-16T02:24:29;101109.50;;;12.65;94.13
71791;BME280;59638;52.126;5.434;2022-10-16T02:29:32;101117.75;;;12.62;94.57
71791;BME280;59638;52.126;5.434;2022-10-16T02:32:06;101127.09;;;12.56;94.58
71791;BME280;59638;52.126;5.434;2022-10-16T02:34:34;101118.16;;;12.57;94.91
71791;BME280;59638;52.126;5.434;2022-10-16T02:37:03;101120.81;;;12.57;94.98
71791;BME280;59638;52.126;5.434;2022-10-16T02:39:30;101114.56;;;12.48;95.23
71791;BME280;59638;52.126;5.434;2022-10-16T02:41:57;101115.00;;;12.44;94.73
71791;BME280;59638;52.126;5.434;2022-10-16T02:44:24;101126.84;;;12.40;94.75
71791;BME280;59638;52.126;5.434;2022-10-16T02:46:50;101129.09;;;12.35;95.16
71791;BME280;59638;52.126;5.434;2022-10-16T02:49:16;101126.72;;;12.32;95.77
71791;BME280;59638;52.126;5.434;2022-10-16T02:51:44;101135.50;;;12.32;95.75
71791;BME280;59638;52.126;5.434;2022-10-16T02:54:10;101129.66;;;12.29;95.57
71791;BME280;59638;52.126;5.434;2022-10-16T02:56:36;101135.53;;;12.22;96.01
71791;BME280;59638;52.126;5.434;2022-10-16T02:59:03;101137.19;;;12.23;96.46
71791;BME280;59638;52.126;5.434;2022-10-16T03:01:29;101138.00;;;12.24;96.08
71791;BME280;59638;52.126;5.434;2022-10-16T03:03:56;101141.91;;;12.20;96.28
71791;BME280;59638;52.126;5.434;2022-10-16T03:06:22;101139.84;;;12.23;96.60
71791;BME280;59638;52.126;5.434;2022-10-16T03:08:49;101138.84;;;12.24;96.55
71791;BME280;59638;52.126;5.434;2022-10-16T03:11:15;101129.66;;;12.29;96.82
71791;BME280;59638;52.126;5.434;2022-10-16T03:13:42;101125.19;;;12.29;96.84
71791;BME280;59638;52.126;5.434;2022-10-16T03:16:08;101127.69;;;12.31;96.43
71791;BME280;59638;52.126;5.434;2022-10-16T03:18:34;101130.50;;;12.29;96.39
71791;BME280;59638;52.126;5.434;2022-10-16T03:21:01;101130.06;;;12.24;97.09
71791;BME280;59638;52.126;5.434;2022-10-16T03:23:27;101131.47;;;12.18;96.77
71791;BME280;59638;52.126;5.434;2022-10-16T03:25:59;101137.75;;;12.17;97.36
71791;BME280;59638;52.126;5.434;2022-10-16T03:28:26;101129.94;;;12.16;96.92
71791;BME280;59638;52.126;5.434;2022-10-16T03:30:52;101135.78;;;12.19;97.11
71791;BME280;59638;52.126;5.434;2022-10-16T03:33:18;101131.47;;;12.18;97.18
71791;BME280;59638;52.126;5.434;2022-10-16T03:35:51;101142.34;;;12.15;97.29
71791;BME280;59638;52.126;5.434;2022-10-16T03:38:17;101136.06;;;12.16;96.97
71791;BME280;59638;52.126;5.434;2022-10-16T03:40:43;101141.63;;;12.13;97.20
71791;BME280;59638;52.126;5.434;2022-10-16T03:43:10;101145.94;;;12.14;97.23
71791;BME280;59638;52.126;5.434;2022-10-16T03:45:36;101143.88;;;12.18;96.83
71791;BME280;59638;52.126;5.434;2022-10-16T03:48:03;101145.56;;;12.09;97.18
71791;BME280;59638;52.126;5.434;2022-10-16T03:50:29;101154.16;;;12.02;97.44
71791;BME280;59638;52.126;5.434;2022-10-16T03:52:56;101148.59;;;11.95;97.57
71791;BME280;59638;52.126;5.434;2022-10-16T03:55:22;101154.19;;;11.92;97.54
71791;BME280;59638;52.126;5.434;2022-10-16T03:57:48;101142.75;;;11.91;97.78
71791;BME280;59638;52.126;5.434;2022-10-16T04:00:15;101151.09;;;11.87;98.29
71791;BME280;59638;52.126;5.434;2022-10-16T04:02:41;101152.50;;;11.91;98.32
71791;BME280;59638;52.126;5.434;2022-10-16T04:05:08;101161.13;;;11.93;98.17
71791;BME280;59638;52.126;5.434;2022-10-16T04:07:35;101165.88;;;11.89;98.17
71791;BME280;59638;52.126;5.434;2022-10-16T04:10:01;101169.63;;;11.87;97.96
71791;BME280;59638;52.126;5.434;2022-10-16T04:12:28;101178.41;;;11.87;98.20
71791;BME280;59638;52.126;5.434;2022-10-16T04:14:54;101165.16;;;11.87;98.30
71791;BME280;59638;52.126;5.434;2022-10-16T04:17:20;101182.41;;;11.82;98.81
71791;BME280;59638;52.126;5.434;2022-10-16T04:19:47;101177.13;;;11.82;98.57
71791;BME280;59638;52.126;5.434;2022-10-16T04:22:13;101188.44;;;11.84;98.76
71791;BME280;59638;52.126;5.434;2022-10-16T04:24:39;101193.97;;;11.81;98.73
71791;BME280;59638;52.126;5.434;2022-10-16T04:27:06;101199.53;;;11.78;98.76
71791;BME280;59638;52.126;5.434;2022-10-16T04:29:32;101198.84;;;11.76;98.68
71791;BME280;59638;52.126;5.434;2022-10-16T04:31:59;101196.19;;;11.76;99.16
71791;BME280;59638;52.126;5.434;2022-10-16T04:34:25;101206.75;;;11.76;98.81
71791;BME280;59638;52.126;5.434;2022-10-16T04:36:51;101201.72;;;11.73;98.79
71791;BME280;59638;52.126;5.434;2022-10-16T04:39:18;101203.94;;;11.67;98.72
71791;BME280;59638;52.126;5.434;2022-10-16T04:41:44;101216.03;;;11.60;98.87
71791;BME280;59638;52.126;5.434;2022-10-16T04:44:10;101201.16;;;11.59;99.55
71791;BME280;59638;52.126;5.434;2022-10-16T04:46:37;101206.19;;;11.62;99.33
71791;BME280;59638;52.126;5.434;2022-10-16T04:49:03;101217.59;;;11.73;99.10
71791;BME280;59638;52.126;5.434;2022-10-16T04:51:29;101218.28;;;11.75;99.58
71791;BME280;59638;52.126;5.434;2022-10-16T04:53:56;101217.34;;;11.76;99.33
71791;BME280;59638;52.126;5.434;2022-10-16T04:56:22;101227.63;;;11.79;99.48
71791;BME280;59638;52.126;5.434;2022-10-16T04:58:49;101236.28;;;11.81;99.40
71791;BME280;59638;52.126;5.434;2022-10-16T05:01:15;101232.41;;;11.85;99.16
71791;BME280;59638;52.126;5.434;2022-10-16T05:03:42;101239.53;;;11.84;99.32
71791;BME280;59638;52.126;5.434;2022-10-16T05:06:09;101237.53;;;11.77;99.12
71791;BME280;59638;52.126;5.434;2022-10-16T05:08:35;101234.16;;;11.75;99.19
71791;BME280;59638;52.126;5.434;2022-10-16T05:11:01;101240.44;;;11.74;99.41
71791;BME280;59638;52.126;5.434;2022-10-16T05:13:28;101243.91;;;11.64;99.27
71791;BME280;59638;52.126;5.434;2022-10-16T05:15:54;101241.09;;;11.56;99.62
71791;BME280;59638;52.126;5.434;2022-10-16T05:18:20;101257.66;;;11.58;99.38
71791;BME280;59638;52.126;5.434;2022-10-16T05:20:47;101250.41;;;11.60;99.52
71791;BME280;59638;52.126;5.434;2022-10-16T05:23:13;101254.03;;;11.59;99.55
71791;BME280;59638;52.126;5.434;2022-10-16T05:25:39;101262.66;;;11.61;99.92
71791;BME280;59638;52.126;5.434;2022-10-16T05:28:06;101268.22;;;11.58;100.00
71791;BME280;59638;52.126;5.434;2022-10-16T05:30:32;101265.56;;;11.58;99.91
71791;BME280;59638;52.126;5.434;2022-10-16T05:32:58;101271.84;;;11.57;99.63
71791;BME280;59638;52.126;5.434;2022-10-16T05:35:25;101275.47;;;11.56;100.00
71791;BME280;59638;52.126;5.434;2022-10-16T05:37:52;101279.03;;;11.55;100.00
71791;BME280;59638;52.126;5.434;2022-10-16T05:40:18;101287.94;;;11.54;99.78
71791;BME280;59638;52.126;5.434;2022-10-16T05:42:45;101294.91;;;11.55;100.00
71791;BME280;59638;52.126;5.434;2022-10-16T05:45:12;101288.78;;;11.55;100.00
71791;BME280;59638;52.126;5.434;2022-10-16T05:47:39;101294.91;;;11.55;100.00
71791;BME280;59638;52.126;5.434;2022-10-16T05:50:06;101299.94;;;11.58;99.98
71791;BME280;59638;52.126;5.434;2022-10-16T05:52:32;101305.78;;;11.62;100.00
71791;BME280;59638;52.126;5.434;2022-10-16T05:54:58;101311.38;;;11.68;100.00
71791;BME280;59638;52.126;5.434;2022-10-16T05:57:25;101320.28;;;11.67;100.00
71791;BME280;59638;52.126;5.434;2022-10-16T05:59:52;101328.44;;;11.76;99.99
71791;BME280;59638;52.126;5.434;2022-10-16T06:02:18;101328.88;;;11.81;100.00
71791;BME280;59638;52.126;5.434;2022-10-16T06:04:44;101327.66;;;11.85;100.00
71791;BME280;59638;52.126;5.434;2022-10-16T06:07:11;101326.53;;;11.87;99.82
71791;BME280;59638;52.126;5.434;2022-10-16T06:09:37;101323.78;;;11.89;100.00
71791;BME280;59638;52.126;5.434;2022-10-16T06:12:03;101326.97;;;11.92;99.98
71791;BME280;59638;52.126;5.434;2022-10-16T06:14:30;101346.31;;;11.93;100.00
71791;BME280;59638;52.126;5.434;2022-10-16T06:16:56;101339.06;;;11.95;99.73
71791;BME280;59638;52.126;5.434;2022-10-16T06:19:23;101342.44;;;11.97;99.37
71791;BME280;59638;52.126;5.434;2022-10-16T06:21:49;101347.59;;;11.98;99.60
71791;BME280;59638;52.126;5.434;2022-10-16T06:24:15;101345.53;;;12.02;99.37
71791;BME280;59638;52.126;5.434;2022-10-16T06:26:42;101362.09;;;12.04;99.45
71791;BME280;59638;52.126;5.434;2022-10-16T06:29:08;101367.13;;;12.07;99.28
71791;BME280;59638;52.126;5.434;2022-10-16T06:31:35;101363.09;;;12.13;99.34
71791;BME280;59638;52.126;5.434;2022-10-16T06:34:01;101365.34;;;12.17;99.01
71791;BME280;59638;52.126;5.434;2022-10-16T06:36:28;101362.56;;;12.19;98.96
71791;BME280;59638;52.126;5.434;2022-10-16T06:38:54;101366.88;;;12.20;99.32
71791;BME280;59638;52.126;5.434;2022-10-16T06:41:22;101366.88;;;12.20;99.47
71791;BME280;59638;52.126;5.434;2022-10-16T06:43:49;101373.97;;;12.19;99.19
71791;BME280;59638;52.126;5.434;2022-10-16T06:46:18;101379.28;;;12.19;99.26
71791;BME280;59638;52.126;5.434;2022-10-16T06:48:45;101387.34;;;12.18;99.11
71791;BME280;59638;52.126;5.434;2022-10-16T06:51:15;101396.81;;;12.20;99.26
71791;BME280;59638;52.126;5.434;2022-10-16T06:53:44;101403.81;;;12.21;99.67
71791;BME280;59638;52.126;5.434;2022-10-16T06:56:28;101410.78;;;12.22;99.74
71791;BME280;59638;52.126;5.434;2022-10-16T06:58:56;101403.13;;;12.29;99.26
71791;BME280;59638;52.126;5.434;2022-10-16T07:01:24;101408.00;;;12.34;99.29
71791;BME280;59638;52.126;5.434;2022-10-16T07:03:51;101404.13;;;12.38;98.93
71791;BME280;59638;52.126;5.434;2022-10-16T07:06:20;101405.53;;;12.42;98.46
71791;BME280;59638;52.126;5.434;2022-10-16T07:08:47;101387.41;;;12.47;98.59
71791;BME280;59638;52.126;5.434;2022-10-16T07:11:16;101397.59;;;12.51;98.12
71791;BME280;59638;52.126;5.434;2022-10-16T07:13:44;101404.16;;;12.57;98.06
71791;BME280;59638;52.126;5.434;2022-10-16T07:16:20;101413.94;;;12.66;97.85
71791;BME280;59638;52.126;5.434;2022-10-16T07:18:47;101412.69;;;12.70;97.89
71791;BME280;59638;52.126;5.434;2022-10-16T07:21:17;101425.66;;;12.73;97.47
71791;BME280;59638;52.126;5.434;2022-10-16T07:23:44;101421.91;;;12.76;98.02
71791;BME280;59638;52.126;5.434;2022-10-16T07:26:11;101432.34;;;12.77;97.54
71791;BME280;59638;52.126;5.434;2022-10-16T07:28:37;101420.78;;;12.78;97.82
71791;BME280;59638;52.126;5.434;2022-10-16T07:31:08;101436.69;;;12.78;97.44
71791;BME280;59638;52.126;5.434;2022-10-16T07:33:37;101451.03;;;12.86;96.97
71791;BME280;59638;52.126;5.434;2022-10-16T07:36:05;101447.84;;;12.92;97.28
71791;BME280;59638;52.126;5.434;2022-10-16T07:38:32;101446.75;;;13.04;96.72
71791;BME280;59638;52.126;5.434;2022-10-16T07:41:04;101464.72;;;13.20;96.30
71791;BME280;59638;52.126;5.434;2022-10-16T07:43:31;101459.47;;;13.29;95.77
71791;BME280;59638;52.126;5.434;2022-10-16T07:45:58;101461.84;;;13.32;95.16
71791;BME280;59638;52.126;5.434;2022-10-16T07:48:32;101471.75;;;13.30;95.47
71791;BME280;59638;52.126;5.434;2022-10-16T07:51:00;101475.09;;;13.32;95.17
71791;BME280;59638;52.126;5.434;2022-10-16T07:53:27;101476.50;;;13.27;95.34
71791;BME280;59638;52.126;5.434;2022-10-16T07:55:59;101498.84;;;13.34;95.32
71791;BME280;59638;52.126;5.434;2022-10-16T07:58:27;101499.84;;;13.99;94.91
71791;BME280;59638;52.126;5.434;2022-10-16T08:00:54;101502.47;;;14.83;92.31
71791;BME280;59638;52.126;5.434;2022-10-16T08:03:21;101502.59;;;15.89;88.73
71791;BME280;59638;52.126;5.434;2022-10-16T08:05:47;101500.13;;;16.55;85.38
71791;BME280;59638;52.126;5.434;2022-10-16T08:08:16;101507.31;;;17.13;82.30
71791;BME280;59638;52.126;5.434;2022-10-16T08:10:43;101493.50;;;15.56;86.14
71791;BME280;59638;52.126;5.434;2022-10-16T08:13:10;101498.97;;;16.24;85.13
71791;BME280;59638;52.126;5.434;2022-10-16T08:15:36;101504.28;;;16.84;84.47
71791;BME280;59638;52.126;5.434;2022-10-16T08:18:04;101513.25;;;16.83;83.10
71791;BME280;59638;52.126;5.434;2022-10-16T08:20:32;101504.19;;;16.68;82.32
71791;BME280;59638;52.126;5.434;2022-10-16T08:22:59;101512.69;;;17.62;81.21
71791;BME280;59638;52.126;5.434;2022-10-16T08:25:26;101523.22;;;16.73;81.82
71791;BME280;59638;52.126;5.434;2022-10-16T08:27:52;101520.00;;;17.20;82.04
71791;BME280;59638;52.126;5.434;2022-10-16T08:30:21;101516.28;;;18.27;77.57
71791;BME280;59638;52.126;5.434;2022-10-16T08:32:48;101529.81;;;19.12;75.11
71791;BME280;59638;52.126;5.434;2022-10-16T08:35:15;101538.66;;;18.81;74.03
71791;BME280;59638;52.126;5.434;2022-10-16T08:37:42;101524.59;;;18.40;77.09
71791;BME280;59638;52.126;5.434;2022-10-16T08:43:15;101536.28;;;19.48;72.11
71791;BME280;59638;52.126;5.434;2022-10-16T08:50:51;101553.72;;;19.13;71.54
71791;BME280;59638;52.126;5.434;2022-10-16T08:53:24;101556.59;;;19.80;71.24
71791;BME280;59638;52.126;5.434;2022-10-16T08:55:53;101566.69;;;19.93;67.33
71791;BME280;59638;52.126;5.434;2022-10-16T08:58:22;101574.72;;;19.78;70.32
71791;BME280;59638;52.126;5.434;2022-10-16T09:00:56;101573.03;;;19.54;68.07
71791;BME280;59638;52.126;5.434;2022-10-16T09:06:10;101568.16;;;20.33;66.78
71791;BME280;59638;52.126;5.434;2022-10-16T09:11:55;101566.47;;;20.91;68.49
71791;BME280;59638;52.126;5.434;2022-10-16T09:17:32;101574.38;;;21.72;64.22
71791;BME280;59638;52.126;5.434;2022-10-16T09:22:41;101594.16;;;22.35;59.90
71791;BME280;59638;52.126;5.434;2022-10-16T09:25:20;101591.53;;;22.48;61.81
71791;BME280;59638;52.126;5.434;2022-10-16T09:27:48;101596.69;;;22.78;59.08
71791;BME280;59638;52.126;5.434;2022-10-16T09:30:20;101597.78;;;22.56;58.70
71791;BME280;59638;52.126;5.434;2022-10-16T09:32:49;101592.63;;;22.95;58.50
71791;BME280;59638;52.126;5.434;2022-10-16T09:35:18;101607.56;;;22.98;59.61
71791;BME280;59638;52.126;5.434;2022-10-16T09:37:48;101604.22;;;22.96;57.79
71791;BME280;59638;52.126;5.434;2022-10-16T09:40:30;101609.34;;;23.39;59.13
71791;BME280;59638;52.126;5.434;2022-10-16T09:43:13;101612.56;;;24.02;56.79
71791;BME280;59638;52.126;5.434;2022-10-16T09:45:53;101608.63;;;23.78;56.70
71791;BME280;59638;52.126;5.434;2022-10-16T09:48:20;101609.47;;;23.98;56.68
71791;BME280;59638;52.126;5.434;2022-10-16T09:50:59;101609.66;;;24.03;56.40
71791;BME280;59638;52.126;5.434;2022-10-16T09:53:38;101617.72;;;24.30;56.77
71791;BME280;59638;52.126;5.434;2022-10-16T09:56:05;101617.91;;;21.61;59.95
71791;BME280;59638;52.126;5.434;2022-10-16T09:58:41;101629.25;;;19.86;66.55
71791;BME280;59638;52.126;5.434;2022-10-16T10:01:14;101626.22;;;21.87;62.33
71791;BME280;59638;52.126;5.434;2022-10-16T10:03:42;101629.78;;;23.94;56.81
71791;BME280;59638;52.126;5.434;2022-10-16T10:06:25;101618.16;;;24.47;54.66
71791;BME280;59638;52.126;5.434;2022-10-16T10:09:14;101625.66;;;24.11;55.30
71791;BME280;59638;52.126;5.434;2022-10-16T10:11:54;101636.44;;;23.98;55.21
71791;BME280;59638;52.126;5.434;2022-10-16T10:16:50;101631.88;;;25.16;52.56
71791;BME280;59638;52.126;5.434;2022-10-16T10:19:22;101613.47;;;25.70;50.35
71791;BME280;59638;52.126;5.434;2022-10-16T10:21:52;101623.28;;;26.64;47.91
71791;BME280;59638;52.126;5.434;2022-10-16T10:24:19;101643.06;;;24.35;51.02
71791;BME280;59638;52.126;5.434;2022-10-16T10:27:03;101640.19;;;24.10;54.12
71791;BME280;59638;52.126;5.434;2022-10-16T10:29:56;101634.91;;;25.33;52.77
71791;BME280;59638;52.126;5.434;2022-10-16T10:32:36;101649.28;;;24.23;51.63
71791;BME280;59638;52.126;5.434;2022-10-16T10:35:19;101651.00;;;25.53;51.00
71791;BME280;59638;52.126;5.434;2022-10-16T10:37:55;101650.31;;;24.48;50.02
71791;BME280;59638;52.126;5.434;2022-10-16T10:40:39;101654.69;;;24.23;52.41
71791;BME280;59638;52.126;5.434;2022-10-16T10:43:38;101657.53;;;23.62;53.39
71791;BME280;59638;52.126;5.434;2022-10-16T10:46:16;101667.19;;;23.49;51.37
71791;BME280;59638;52.126;5.434;2022-10-16T10:49:05;101660.88;;;20.51;56.80
71791;BME280;59638;52.126;5.434;2022-10-16T10:51:44;101675.94;;;19.29;62.28
71791;BME280;59638;52.126;5.434;2022-10-16T10:54:25;101667.00;;;21.04;60.80
71791;BME280;59638;52.126;5.434;2022-10-16T10:57:02;101665.22;;;20.52;59.31
71791;BME280;59638;52.126;5.434;2022-10-16T11:02:18;101664.47;;;21.17;56.29
71791;BME280;59638;52.126;5.434;2022-10-16T11:07:52;101678.69;;;18.16;62.74
71791;BME280;59638;52.126;5.434;2022-10-16T11:10:24;101685.31;;;21.30;57.65
71791;BME280;59638;52.126;5.434;2022-10-16T11:12:57;101684.13;;;20.35;55.28
71791;BME280;59638;52.126;5.434;2022-10-16T11:15:35;101688.00;;;19.64;61.20
71791;BME280;59638;52.126;5.434;2022-10-16T11:18:12;101697.81;;;20.41;57.15
71791;BME280;59638;52.126;5.434;2022-10-16T11:20:51;101689.97;;;20.16;61.01
71791;BME280;59638;52.126;5.434;2022-10-16T11:23:26;101682.53;;;21.74;54.40
71791;BME280;59638;52.126;5.434;2022-10-16T11:25:59;101691.41;;;21.38;54.78
71791;BME280;59638;52.126;5.434;2022-10-16T11:28:34;101692.72;;;21.42;53.63
71791;BME280;59638;52.126;5.434;2022-10-16T11:31:10;101714.25;;;20.37;57.81
71791;BME280;59638;52.126;5.434;2022-10-16T11:33:42;101720.63;;;19.28;60.14
71791;BME280;59638;52.126;5.434;2022-10-16T11:36:19;101709.00;;;20.67;56.57
71791;BME280;59638;52.126;5.434;2022-10-16T11:41:50;101688.78;;;25.21;45.74
71791;BME280;59638;52.126;5.434;2022-10-16T11:50:21;101695.25;;;26.28;44.95
71791;BME280;59638;52.126;5.434;2022-10-16T11:52:57;101705.13;;;26.66;44.02
71791;BME280;59638;52.126;5.434;2022-10-16T11:55:31;101706.94;;;25.08;46.09
71791;BME280;59638;52.126;5.434;2022-10-16T11:58:06;101702.72;;;25.77;42.46
71791;BME280;59638;52.126;5.434;2022-10-16T12:01:03;101703.44;;;26.22;44.66
71791;BME280;59638;52.126;5.434;2022-10-16T12:09:14;101711.66;;;27.20;41.58
71791;BME280;59638;52.126;5.434;2022-10-16T12:11:41;101711.94;;;28.09;39.59
71791;BME280;59638;52.126;5.434;2022-10-16T12:16:39;101717.06;;;27.20;41.05
71791;BME280;59638;52.126;5.434;2022-10-16T12:19:17;101721.91;;;25.10;44.90
71791;BME280;59638;52.126;5.434;2022-10-16T12:21:44;101720.50;;;24.48;45.38
71791;BME280;59638;52.126;5.434;2022-10-16T12:24:41;101716.22;;;25.32;43.98
71791;BME280;59638;52.126;5.434;2022-10-16T12:27:31;101722.28;;;23.88;47.28
71791;BME280;59638;52.126;5.434;2022-10-16T12:30:00;101717.47;;;22.60;49.33
71791;BME280;59638;52.126;5.434;2022-10-16T12:32:32;101729.28;;;21.43;51.95
71791;BME280;59638;52.126;5.434;2022-10-16T12:35:22;101734.88;;;20.60;55.12
71791;BME280;59638;52.126;5.434;2022-10-16T12:37:50;101742.03;;;19.99;54.70
71791;BME280;59638;52.126;5.434;2022-10-16T12:40:31;101737.16;;;19.71;57.15
71791;BME280;59638;52.126;5.434;2022-10-16T12:42:59;101736.84;;;19.66;57.12
71791;BME280;59638;52.126;5.434;2022-10-16T12:45:36;101727.59;;;19.38;57.94
71791;BME280;59638;52.126;5.434;2022-10-16T12:48:17;101726.94;;;19.27;56.79
71791;BME280;59638;52.126;5.434;2022-10-16T12:50:44;101729.75;;;18.87;57.19
71791;BME280;59638;52.126;5.434;2022-10-16T12:53:19;101730.44;;;18.64;57.72
71791;BME280;59638;52.126;5.434;2022-10-16T12:55:53;101736.44;;;18.42;59.51
71791;BME280;59638;52.126;5.434;2022-10-16T12:58:44;101739.28;;;18.40;59.46
71791;BME280;59638;52.126;5.434;2022-10-16T13:04:06;101740.13;;;18.33;59.79
71791;BME280;59638;52.126;5.434;2022-10-16T13:06:46;101748.47;;;18.21;59.84
71791;BME280;59638;52.126;5.434;2022-10-16T13:09:35;101744.13;;;18.29;59.96
71791;BME280;59638;52.126;5.434;2022-10-16T13:12:34;101734.44;;;18.11;61.12
71791;BME280;59638;52.126;5.434;2022-10-16T13:15:16;101735.75;;;17.99;59.64
71791;BME280;59638;52.126;5.434;2022-10-16T13:17:55;101740.41;;;17.89;60.88
71791;BME280;59638;52.126;5.434;2022-10-16T13:20:35;101740.94;;;18.01;60.17
71791;BME280;59638;52.126;5.434;2022-10-16T13:23:26;101748.94;;;18.09;61.98
71791;BME280;59638;52.126;5.434;2022-10-16T13:28:40;101749.97;;;18.08;62.26
71791;BME280;59638;52.126;5.434;2022-10-16T13:31:15;101752.63;;;18.08;63.24
71791;BME280;59638;52.126;5.434;2022-10-16T13:33:46;101756.16;;;18.16;61.87
71791;BME280;59638;52.126;5.434;2022-10-16T13:36:22;101758.47;;;18.03;61.63
71791;BME280;59638;52.126;5.434;2022-10-16T13:39:00;101764.13;;;18.00;62.24
71791;BME280;59638;52.126;5.434;2022-10-16T13:41:30;101779.50;;;17.98;62.09
71791;BME280;59638;52.126;5.434;2022-10-16T13:43:57;101775.47;;;17.94;63.53
71791;BME280;59638;52.126;5.434;2022-10-16T13:46:25;101777.50;;;17.92;63.51
71791;BME280;59638;52.126;5.434;2022-10-16T13:49:05;101770.13;;;17.94;63.99
71791;BME280;59638;52.126;5.434;2022-10-16T13:51:37;101764.44;;;17.81;63.67
71791;BME280;59638;52.126;5.434;2022-10-16T13:54:03;101761.72;;;17.73;63.50
71791;BME280;59638;52.126;5.434;2022-10-16T13:56:32;101764.19;;;17.66;64.21
71791;BME280;59638;52.126;5.434;2022-10-16T13:59:25;101770.63;;;17.55;64.02
71791;BME280;59638;52.126;5.434;2022-10-16T14:01:55;101772.16;;;17.50;63.56
71791;BME280;59638;52.126;5.434;2022-10-16T14:04:23;101779.25;;;17.41;64.11
71791;BME280;59638;52.126;5.434;2022-10-16T14:06:50;101782.94;;;17.40;64.33
71791;BME280;59638;52.126;5.434;2022-10-16T14:09:27;101783.56;;;17.34;64.40
71791;BME280;59638;52.126;5.434;2022-10-16T14:12:00;101790.56;;;17.35;65.29
71791;BME280;59638;52.126;5.434;2022-10-16T14:14:34;101780.72;;;17.35;66.82
71791;BME280;59638;52.126;5.434;2022-10-16T14:17:02;101784.22;;;17.36;67.14